Wetterdaten: aktuell Donnerstag, 05.08.2021 12:10
Datum Zeit Temp. A. Temp. A. min Temp. A. max Feuchte A. Bod.Feucht 4 Luftdruck Regen Wind Richtung Richtung Sonnenschein ET Solar Taupunkt Windchill Windben Empfang
05.08.2021 12:10 17,8 C 17,8 C 17,9 C 89 % 0 cb 1010,1 hPa 0,0 l/m 3,2 km/h (1 Bft) W-SW 247 10 min 0,000 mm 260 W/m 16,0 C 17,8 C 11,3 km/h (2 Bft) 100,00 %
05.08.2021 12:00 17,8 C 17,8 C 17,9 C 89 % 0 cb 1010,2 hPa 0,2 l/m 1,6 km/h (1 Bft) W-SW 247 10 min 0,152 mm 243 W/m 16,0 C 17,8 C 4,8 km/h (1 Bft) 100,00 %
05.08.2021 11:50 17,9 C 17,9 C 18,1 C 88 % 0 cb 1010,2 hPa 0,0 l/m 1,6 km/h (1 Bft) W-SW 247 0 min 0,000 mm 146 W/m 15,9 C 17,9 C 6,4 km/h (2 Bft) 100,00 %
05.08.2021 11:40 18,1 C 18,1 C 18,2 C 88 % 0 cb 1010,3 hPa 0,0 l/m 1,6 km/h (1 Bft) W-SW 247 10 min 0,000 mm 214 W/m 16,1 C 18,1 C 8,0 km/h (2 Bft) 100,00 %
05.08.2021 11:30 18,2 C 17,8 C 18,2 C 90 % 0 cb 1010,2 hPa 0,0 l/m 1,6 km/h (1 Bft) SO 135 10 min 0,000 mm 503 W/m 16,5 C 18,2 C 6,4 km/h (2 Bft) 99,12 %
05.08.2021 11:20 17,8 C 17,7 C 17,8 C 91 % 0 cb 1010,3 hPa 0,2 l/m 0,0 km/h (0 Bft) N 0 10 min 0,000 mm 740 W/m 16,3 C 17,8 C 0,0 km/h (0 Bft) 100,00 %
05.08.2021 11:10 17,7 C 17,7 C 17,8 C 88 % 0 cb 1010,3 hPa 0,2 l/m 0,0 km/h (0 Bft) N 0 10 min 0,000 mm 234 W/m 15,7 C 17,7 C 0,0 km/h (0 Bft) 100,00 %
05.08.2021 11:00 17,8 C 17,7 C 17,8 C 88 % 0 cb 1010,4 hPa 0,0 l/m 0,0 km/h (0 Bft) SO 135 10 min 0,127 mm 178 W/m 15,8 C 17,8 C 4,8 km/h (1 Bft) 100,00 %
05.08.2021 10:50 17,8 C 17,8 C 17,9 C 87 % 0 cb 1010,4 hPa 0,2 l/m 1,6 km/h (1 Bft) SO 135 10 min 0,000 mm 186 W/m 15,6 C 17,8 C 4,8 km/h (1 Bft) 100,00 %
05.08.2021 10:40 17,9 C 17,8 C 17,9 C 87 % 0 cb 1010,4 hPa 0,0 l/m 3,2 km/h (1 Bft) SO 135 10 min 0,000 mm 214 W/m 15,7 C 17,9 C 6,4 km/h (2 Bft) 100,00 %
05.08.2021 10:30 17,8 C 17,6 C 17,8 C 88 % 0 cb 1010,4 hPa 0,0 l/m 1,6 km/h (1 Bft) SO 135 10 min 0,000 mm 406 W/m 15,8 C 17,8 C 6,4 km/h (2 Bft) 100,00 %
05.08.2021 10:20 17,6 C 17,3 C 17,6 C 89 % 0 cb 1010,5 hPa 0,0 l/m 1,6 km/h (1 Bft) SO 135 10 min 0,000 mm 341 W/m 15,8 C 17,6 C 6,4 km/h (2 Bft) 100,00 %
05.08.2021 10:10 17,3 C 17,2 C 17,3 C 88 % 0 cb 1010,5 hPa 0,0 l/m 0,0 km/h (0 Bft) SO 135 10 min 0,000 mm 381 W/m 15,3 C 17,3 C 3,2 km/h (1 Bft) 100,00 %
05.08.2021 10:00 17,2 C 17,2 C 17,2 C 87 % 0 cb 1010,6 hPa 0,2 l/m 1,6 km/h (1 Bft) SO 135 10 min 0,102 mm 202 W/m 15,0 C 17,2 C 6,4 km/h (2 Bft) 100,00 %
05.08.2021 09:50 17,2 C 17,2 C 17,3 C 87 % 0 cb 1010,5 hPa 0,0 l/m 1,6 km/h (1 Bft) SO 135 0 min 0,000 mm 149 W/m 15,0 C 17,2 C 4,8 km/h (1 Bft) 100,00 %
05.08.2021 09:40 17,2 C 17,0 C 17,2 C 88 % 0 cb 1010,6 hPa 0,0 l/m 1,6 km/h (1 Bft) SO 135 10 min 0,000 mm 172 W/m 15,2 C 17,2 C 6,4 km/h (2 Bft) 100,00 %
05.08.2021 09:30 17,0 C 16,6 C 17,0 C 88 % 0 cb 1010,7 hPa 0,0 l/m 1,6 km/h (1 Bft) SO 135 10 min 0,000 mm 257 W/m 15,0 C 17,0 C 6,4 km/h (2 Bft) 100,00 %
05.08.2021 09:20 16,6 C 16,2 C 16,6 C 90 % 0 cb 1010,6 hPa 0,0 l/m 0,0 km/h (0 Bft) O-SO 112 10 min 0,000 mm 348 W/m 15,0 C 16,6 C 3,2 km/h (1 Bft) 100,00 %
05.08.2021 09:10 16,2 C 16,1 C 16,2 C 90 % 0 cb 1010,8 hPa 0,0 l/m 1,6 km/h (1 Bft) O-SO 112 10 min 0,000 mm 234 W/m 14,6 C 16,2 C 4,8 km/h (1 Bft) 100,00 %
05.08.2021 09:00 16,1 C 15,7 C 16,1 C 92 % 0 cb 1010,9 hPa 0,0 l/m 1,6 km/h (1 Bft) O-SO 112 10 min 0,076 mm 234 W/m 14,8 C 16,1 C 6,4 km/h (2 Bft) 100,00 %
05.08.2021 08:50 15,8 C 15,5 C 15,8 C 93 % 0 cb 1010,8 hPa 0,0 l/m 0,0 km/h (0 Bft) O-SO 112 10 min 0,000 mm 209 W/m 14,7 C 15,8 C 3,2 km/h (1 Bft) 100,00 %
05.08.2021 08:40 15,5 C 15,2 C 15,5 C 94 % 0 cb 1010,8 hPa 0,0 l/m 0,0 km/h (0 Bft) O-SO 112 10 min 0,000 mm 232 W/m 14,5 C 15,5 C 1,6 km/h (1 Bft) 100,00 %
05.08.2021 08:30 15,2 C 15,0 C 15,2 C 94 % 0 cb 1010,7 hPa 0,0 l/m 0,0 km/h (0 Bft) O-SO 112 10 min 0,000 mm 174 W/m 14,2 C 15,2 C 3,2 km/h (1 Bft) 100,00 %
05.08.2021 08:20 15,0 C 14,9 C 15,0 C 95 % 0 cb 1010,9 hPa 0,0 l/m 0,0 km/h (0 Bft) O-SO 112 0 min 0,000 mm 134 W/m 14,2 C 15,0 C 3,2 km/h (1 Bft) 100,00 %
05.08.2021 08:10 14,9 C 14,7 C 14,9 C 95 % 0 cb 1010,7 hPa 0,0 l/m 0,0 km/h (0 Bft) O-SO 112 0 min 0,000 mm 139 W/m 14,1 C 14,9 C 1,6 km/h (1 Bft) 100,00 %
05.08.2021 08:00 14,7 C 14,6 C 14,7 C 96 % 0 cb 1010,9 hPa 0,0 l/m 0,0 km/h (0 Bft) O-SO 112 0 min 0,051 mm 144 W/m 14,1 C 14,7 C 1,6 km/h (1 Bft) 100,00 %
05.08.2021 07:50 14,6 C 14,5 C 14,6 C 96 % 0 cb 1010,9 hPa 0,0 l/m 0,0 km/h (0 Bft) O-SO 112 0 min 0,000 mm 90 W/m 14,0 C 14,6 C 1,6 km/h (1 Bft) 100,00 %
05.08.2021 07:40 14,5 C 14,2 C 14,5 C 96 % 0 cb 1010,9 hPa 0,0 l/m 0,0 km/h (0 Bft) O-SO 112 0 min 0,000 mm 151 W/m 13,9 C 14,5 C 1,6 km/h (1 Bft) 100,00 %
05.08.2021 07:30 14,2 C 14,0 C 14,2 C 96 % 0 cb 1010,9 hPa 0,0 l/m 0,0 km/h (0 Bft) O-SO 112 0 min 0,000 mm 105 W/m 13,6 C 14,2 C 1,6 km/h (1 Bft) 100,00 %
05.08.2021 07:20 13,9 C 13,7 C 13,9 C 96 % 0 cb 1010,9 hPa 0,0 l/m 0,0 km/h (0 Bft) N 0 0 min 0,000 mm 118 W/m 13,3 C 13,9 C 0,0 km/h (0 Bft) 100,00 %
05.08.2021 07:10 13,7 C 13,6 C 13,7 C 96 % 0 cb 1010,9 hPa 0,0 l/m 0,0 km/h (0 Bft) N 0 0 min 0,000 mm 83 W/m 13,1 C 13,7 C 0,0 km/h (0 Bft) 99,56 %
05.08.2021 07:00 13,6 C 13,5 C 13,6 C 95 % 0 cb 1010,9 hPa 0,0 l/m 0,0 km/h (0 Bft) N 0 0 min 0,000 mm 54 W/m 12,8 C 13,6 C 0,0 km/h (0 Bft) 100,00 %
05.08.2021 06:50 13,6 C 13,5 C 13,6 C 95 % 0 cb 1011,0 hPa 0,0 l/m 0,0 km/h (0 Bft) N 0 0 min 0,000 mm 23 W/m 12,8 C 13,6 C 0,0 km/h (0 Bft) 100,00 %
05.08.2021 06:40 13,5 C 13,5 C 13,6 C 95 % 0 cb 1010,9 hPa 0,0 l/m 0,0 km/h (0 Bft) N 0 0 min 0,000 mm 18 W/m 12,7 C 13,5 C 0,0 km/h (0 Bft) 100,00 %
05.08.2021 06:30 13,6 C 13,6 C 13,6 C 95 % 0 cb 1011,1 hPa 0,0 l/m 0,0 km/h (0 Bft) N 0 0 min 0,000 mm 11 W/m 12,8 C 13,6 C 0,0 km/h (0 Bft) 97,81 %
05.08.2021 06:20 13,6 C 13,6 C 13,7 C 95 % 0 cb 1010,9 hPa 0,0 l/m 0,0 km/h (0 Bft) N 0 0 min 0,000 mm 5 W/m 12,8 C 13,6 C 0,0 km/h (0 Bft) 100,00 %
05.08.2021 06:10 13,7 C 13,6 C 13,7 C 95 % 0 cb 1011,0 hPa 0,0 l/m 0,0 km/h (0 Bft) N 0 0 min 0,000 mm 0 W/m 12,9 C 13,7 C 0,0 km/h (0 Bft) 100,00 %
05.08.2021 06:00 13,7 C 13,7 C 13,7 C 95 % 0 cb 1010,8 hPa 0,0 l/m 0,0 km/h (0 Bft) N 0 0 min 0,000 mm 0 W/m 12,9 C 13,7 C 0,0 km/h (0 Bft) 100,00 %
05.08.2021 05:50 13,7 C 13,7 C 13,7 C 95 % 0 cb 1011,0 hPa 0,0 l/m 0,0 km/h (0 Bft) N 0 0 min 0,000 mm 0 W/m 12,9 C 13,7 C 0,0 km/h (0 Bft) 100,00 %
05.08.2021 05:40 13,7 C 13,7 C 13,7 C 95 % 0 cb 1011,0 hPa 0,0 l/m 0,0 km/h (0 Bft) N 0 0 min 0,000 mm 0 W/m 12,9 C 13,7 C 0,0 km/h (0 Bft) 100,00 %
05.08.2021 05:30 13,7 C 13,7 C 13,8 C 95 % 0 cb 1011,2 hPa 0,0 l/m 0,0 km/h (0 Bft) N 0 0 min 0,000 mm 0 W/m 12,9 C 13,7 C 0,0 km/h (0 Bft) 100,00 %
05.08.2021 05:20 13,8 C 13,8 C 13,8 C 95 % 0 cb 1011,2 hPa 0,0 l/m 0,0 km/h (0 Bft) N 0 0 min 0,000 mm 0 W/m 13,0 C 13,8 C 0,0 km/h (0 Bft) 100,00 %
05.08.2021 05:10 13,8 C 13,8 C 13,8 C 94 % 0 cb 1011,3 hPa 0,0 l/m 0,0 km/h (0 Bft) N 0 0 min 0,000 mm 0 W/m 12,9 C 13,8 C 0,0 km/h (0 Bft) 100,00 %
05.08.2021 05:00 13,8 C 13,8 C 13,9 C 94 % 0 cb 1011,4 hPa 0,0 l/m 0,0 km/h (0 Bft) N 0 0 min 0,000 mm 0 W/m 12,9 C 13,8 C 0,0 km/h (0 Bft) 100,00 %
05.08.2021 04:50 13,9 C 13,9 C 13,9 C 94 % 0 cb 1011,4 hPa 0,0 l/m 0,0 km/h (0 Bft) N 0 0 min 0,000 mm 0 W/m 12,9 C 13,9 C 0,0 km/h (0 Bft) 100,00 %
05.08.2021 04:40 13,9 C 13,9 C 14,0 C 94 % 0 cb 1011,3 hPa 0,0 l/m 0,0 km/h (0 Bft) N 0 0 min 0,000 mm 0 W/m 12,9 C 13,9 C 0,0 km/h (0 Bft) 100,00 %
05.08.2021 04:30 14,0 C 14,0 C 14,1 C 94 % 0 cb 1011,4 hPa 0,0 l/m 0,0 km/h (0 Bft) N 0 0 min 0,000 mm 0 W/m 13,0 C 14,0 C 0,0 km/h (0 Bft) 100,00 %
05.08.2021 04:20 14,1 C 14,0 C 14,1 C 94 % 0 cb 1011,4 hPa 0,0 l/m 0,0 km/h (0 Bft) N 0 0 min 0,000 mm 0 W/m 13,1 C 14,1 C 0,0 km/h (0 Bft) 100,00 %
05.08.2021 04:10 14,0 C 14,0 C 14,0 C 94 % 0 cb 1011,4 hPa 0,0 l/m 0,0 km/h (0 Bft) N 0 0 min 0,000 mm 0 W/m 13,0 C 14,0 C 0,0 km/h (0 Bft) 100,00 %
05.08.2021 04:00 14,0 C 14,0 C 14,1 C 94 % 0 cb 1011,5 hPa 0,0 l/m 0,0 km/h (0 Bft) N 0 0 min 0,000 mm 0 W/m 13,0 C 14,0 C 0,0 km/h (0 Bft) 100,00 %
05.08.2021 03:50 14,0 C 14,0 C 14,1 C 94 % 0 cb 1011,6 hPa 0,0 l/m 0,0 km/h (0 Bft) N 0 0 min 0,000 mm 0 W/m 13,0 C 14,0 C 0,0 km/h (0 Bft) 100,00 %
05.08.2021 03:40 14,1 C 14,1 C 14,1 C 94 % 0 cb 1011,7 hPa 0,0 l/m 0,0 km/h (0 Bft) N 0 0 min 0,000 mm 0 W/m 13,1 C 14,1 C 0,0 km/h (0 Bft) 100,00 %
05.08.2021 03:30 14,1 C 14,0 C 14,1 C 94 % 0 cb 1011,8 hPa 0,0 l/m 0,0 km/h (0 Bft) N 0 0 min 0,000 mm 0 W/m 13,1 C 14,1 C 0,0 km/h (0 Bft) 100,00 %
05.08.2021 03:20 14,0 C 14,0 C 14,1 C 93 % 0 cb 1011,9 hPa 0,0 l/m 0,0 km/h (0 Bft) N 0 0 min 0,000 mm 0 W/m 12,9 C 14,0 C 0,0 km/h (0 Bft) 100,00 %
05.08.2021 03:10 14,1 C 14,1 C 14,2 C 93 % 0 cb 1011,9 hPa 0,0 l/m 0,0 km/h (0 Bft) N 0 0 min 0,000 mm 0 W/m 13,0 C 14,1 C 0,0 km/h (0 Bft) 100,00 %
05.08.2021 03:00 14,2 C 14,2 C 14,3 C 93 % 0 cb 1012,0 hPa 0,0 l/m 0,0 km/h (0 Bft) N 0 0 min 0,000 mm 0 W/m 13,1 C 14,2 C 0,0 km/h (0 Bft) 100,00 %
05.08.2021 02:50 14,3 C 14,3 C 14,3 C 93 % 0 cb 1012,0 hPa 0,0 l/m 0,0 km/h (0 Bft) N 0 0 min 0,000 mm 0 W/m 13,2 C 14,3 C 0,0 km/h (0 Bft) 100,00 %
05.08.2021 02:40 14,3 C 14,3 C 14,4 C 93 % 0 cb 1012,1 hPa 0,0 l/m 0,0 km/h (0 Bft) N 0 0 min 0,000 mm 0 W/m 13,2 C 14,3 C 0,0 km/h (0 Bft) 100,00 %
05.08.2021 02:30 14,4 C 14,4 C 14,4 C 93 % 0 cb 1012,1 hPa 0,0 l/m 0,0 km/h (0 Bft) N 0 0 min 0,000 mm 0 W/m 13,3 C 14,4 C 0,0 km/h (0 Bft) 100,00 %
05.08.2021 02:20 14,4 C 14,4 C 14,5 C 93 % 0 cb 1012,1 hPa 0,0 l/m 0,0 km/h (0 Bft) N 0 0 min 0,000 mm 0 W/m 13,3 C 14,4 C 0,0 km/h (0 Bft) 100,00 %
05.08.2021 02:10 14,5 C 14,5 C 14,6 C 92 % 0 cb 1012,1 hPa 0,0 l/m 0,0 km/h (0 Bft) N 0 0 min 0,000 mm 0 W/m 13,2 C 14,5 C 0,0 km/h (0 Bft) 100,00 %
05.08.2021 02:00 14,6 C 14,6 C 14,7 C 92 % 0 cb 1012,2 hPa 0,0 l/m 0,0 km/h (0 Bft) O-SO 112 0 min 0,000 mm 0 W/m 13,3 C 14,6 C 1,6 km/h (1 Bft) 100,00 %
05.08.2021 01:50 14,7 C 14,7 C 14,8 C 92 % 0 cb 1012,2 hPa 0,0 l/m 0,0 km/h (0 Bft) O-SO 112 0 min 0,000 mm 0 W/m 13,4 C 14,7 C 1,6 km/h (1 Bft) 100,00 %
05.08.2021 01:40 14,8 C 14,8 C 15,0 C 91 % 0 cb 1012,3 hPa 0,0 l/m 0,0 km/h (0 Bft) N 0 0 min 0,000 mm 0 W/m 13,3 C 14,8 C 0,0 km/h (0 Bft) 99,56 %
05.08.2021 01:30 15,0 C 15,0 C 15,1 C 91 % 0 cb 1012,3 hPa 0,0 l/m 0,0 km/h (0 Bft) N 0 0 min 0,000 mm 0 W/m 13,5 C 15,0 C 0,0 km/h (0 Bft) 100,00 %
05.08.2021 01:20 15,1 C 15,1 C 15,2 C 91 % 0 cb 1012,5 hPa 0,0 l/m 0,0 km/h (0 Bft) N 0 0 min 0,000 mm 0 W/m 13,6 C 15,1 C 0,0 km/h (0 Bft) 100,00 %
05.08.2021 01:10 15,2 C 15,2 C 15,2 C 91 % 0 cb 1012,5 hPa 0,0 l/m 0,0 km/h (0 Bft) N 0 0 min 0,000 mm 0 W/m 13,7 C 15,2 C 0,0 km/h (0 Bft) 100,00 %
05.08.2021 01:00 15,2 C 15,2 C 15,3 C 91 % 0 cb 1012,5 hPa 0,0 l/m 0,0 km/h (0 Bft) O-SO 112 0 min 0,000 mm 0 W/m 13,7 C 15,2 C 1,6 km/h (1 Bft) 100,00 %
05.08.2021 00:50 15,3 C 15,3 C 15,3 C 91 % 0 cb 1012,5 hPa 0,0 l/m 0,0 km/h (0 Bft) N 0 0 min 0,000 mm 0 W/m 13,8 C 15,3 C 0,0 km/h (0 Bft) 100,00 %
05.08.2021 00:40 15,3 C 15,3 C 15,3 C 91 % 0 cb 1012,5 hPa 0,0 l/m 0,0 km/h (0 Bft) N 0 0 min 0,000 mm 0 W/m 13,8 C 15,3 C 0,0 km/h (0 Bft) 100,00 %
05.08.2021 00:30 15,3 C 15,3 C 15,4 C 91 % 0 cb 1012,5 hPa 0,0 l/m 0,0 km/h (0 Bft) N 0 0 min 0,000 mm 0 W/m 13,8 C 15,3 C 0,0 km/h (0 Bft) 100,00 %
05.08.2021 00:20 15,4 C 15,4 C 15,4 C 90 % 0 cb 1012,4 hPa 0,0 l/m 0,0 km/h (0 Bft) N 0 0 min 0,000 mm 0 W/m 13,8 C 15,4 C 0,0 km/h (0 Bft) 98,68 %
05.08.2021 00:10 15,4 C 15,4 C 15,4 C 90 % 0 cb 1012,4 hPa 0,0 l/m 0,0 km/h (0 Bft) N 0 0 min 0,000 mm 0 W/m 13,8 C 15,4 C 0,0 km/h (0 Bft) 100,00 %
05.08.2021 00:00 15,4 C 15,4 C 15,4 C 90 % 0 cb 1012,3 hPa 0,0 l/m 0,0 km/h (0 Bft) N 0 0 min 0,000 mm 0 W/m 13,8 C 15,4 C 0,0 km/h (0 Bft) 100,00 %
_ Min-Zeit 06:40 06:40 06:30 09:50 00:00 12:10 - 00:00 - - - - - 06:40 06:40 00:00 06:30
Minimum _ 13,5 C 13,5 C 13,6 C 87 % 0 cb 1010,1 hPa - 0,0 km/h (0 Bft) - - - - - 12,7 C 13,5 C 0,0 km/h (0 Bft) 97,81 %
_ Max-Zeit 11:30 11:40 11:30 07:10 00:00 00:30 10:00 10:40 - - 08:30 12:00 11:20 11:30 11:30 12:10 00:00
Maximum _ 18,2 C 18,1 C 18,2 C 96 % 0 cb 1012,5 hPa 0,2 l/m 3,2 km/h
SO (1 Bft)
- - 10 min 0,152 mm 740 W/m 16,5 C 18,2 C 11,3 km/h
SW (2 Bft)
100,00 %
Durchschnitt _ 15,2 C 15,1 C 15,3 C 92 % 0 cb 1011,2 hPa #1,0 l/m 0,4 km/h (0 Bft) SO - #3:30 h #0,508 mm 204 W/m 13,9 C 15,2 C 1,8 km/h (1 Bft) 99,93 %
Wetterstation Gdesweiler